sensor_id;sensor_type;location;lat;lon;timestamp;temperature;humidity
12957;DHT22;6543;48.836;10.092;2023-07-31T00:01:18;13.70;99.90
12957;DHT22;6543;48.836;10.092;2023-07-31T00:03:45;13.60;99.90
12957;DHT22;6543;48.836;10.092;2023-07-31T00:06:12;13.60;99.90
12957;DHT22;6543;48.836;10.092;2023-07-31T00:08:39;13.60;99.90
12957;DHT22;6543;48.836;10.092;2023-07-31T00:11:08;13.60;99.90
12957;DHT22;6543;48.836;10.092;2023-07-31T00:13:34;13.60;99.90
12957;DHT22;6543;48.836;10.092;2023-07-31T00:16:01;13.60;99.90
12957;DHT22;6543;48.836;10.092;2023-07-31T00:18:28;13.50;99.90
12957;DHT22;6543;48.836;10.092;2023-07-31T00:20:55;13.50;99.90
12957;DHT22;6543;48.836;10.092;2023-07-31T00:23:22;13.50;99.90
12957;DHT22;6543;48.836;10.092;2023-07-31T00:25:48;13.40;99.90
12957;DHT22;6543;48.836;10.092;2023-07-31T00:28:17;13.40;99.90
12957;DHT22;6543;48.836;10.092;2023-07-31T00:30:43;13.40;99.90
12957;DHT22;6543;48.836;10.092;2023-07-31T00:33:10;13.40;99.90
12957;DHT22;6543;48.836;10.092;2023-07-31T00:35:37;13.30;99.90
12957;DHT22;6543;48.836;10.092;2023-07-31T00:38:04;13.40;99.90
12957;DHT22;6543;48.836;10.092;2023-07-31T00:40:34;13.40;99.90
12957;DHT22;6543;48.836;10.092;2023-07-31T00:43:01;13.40;99.90
12957;DHT22;6543;48.836;10.092;2023-07-31T00:45:30;13.40;99.90
12957;DHT22;6543;48.836;10.092;2023-07-31T00:47:58;13.40;99.90
12957;DHT22;6543;48.836;10.092;2023-07-31T00:50:25;13.30;99.90
12957;DHT22;6543;48.836;10.092;2023-07-31T00:52:53;13.30;99.90
12957;DHT22;6543;48.836;10.092;2023-07-31T00:55:20;13.30;99.90
12957;DHT22;6543;48.836;10.092;2023-07-31T00:57:48;13.30;99.90
12957;DHT22;6543;48.836;10.092;2023-07-31T01:00:16;13.30;99.90
12957;DHT22;6543;48.836;10.092;2023-07-31T01:02:44;13.30;99.90
12957;DHT22;6543;48.836;10.092;2023-07-31T01:05:11;13.30;99.90
12957;DHT22;6543;48.836;10.092;2023-07-31T01:07:56;13.20;99.90
12957;DHT22;6543;48.836;10.092;2023-07-31T01:10:30;13.30;99.90
12957;DHT22;6543;48.836;10.092;2023-07-31T01:12:57;13.30;99.90
12957;DHT22;6543;48.836;10.092;2023-07-31T01:15:25;13.40;99.90
12957;DHT22;6543;48.836;10.092;2023-07-31T01:17:53;13.30;99.90
12957;DHT22;6543;48.836;10.092;2023-07-31T01:20:21;13.30;99.90
12957;DHT22;6543;48.836;10.092;2023-07-31T01:23:05;13.20;99.90
12957;DHT22;6543;48.836;10.092;2023-07-31T01:25:59;13.20;99.90
12957;DHT22;6543;48.836;10.092;2023-07-31T01:28:36;13.20;99.90
12957;DHT22;6543;48.836;10.092;2023-07-31T01:31:07;13.10;99.90
12957;DHT22;6543;48.836;10.092;2023-07-31T01:33:36;13.10;99.90
12957;DHT22;6543;48.836;10.092;2023-07-31T01:36:04;13.00;99.90
12957;DHT22;6543;48.836;10.092;2023-07-31T01:38:32;13.00;99.90
12957;DHT22;6543;48.836;10.092;2023-07-31T01:41:00;12.90;99.90
12957;DHT22;6543;48.836;10.092;2023-07-31T01:43:27;12.90;99.90
12957;DHT22;6543;48.836;10.092;2023-07-31T01:45:54;12.80;99.90
12957;DHT22;6543;48.836;10.092;2023-07-31T01:48:20;12.80;99.90
12957;DHT22;6543;48.836;10.092;2023-07-31T01:50:47;12.70;99.90
12957;DHT22;6543;48.836;10.092;2023-07-31T01:53:14;12.60;99.90
12957;DHT22;6543;48.836;10.092;2023-07-31T01:55:41;12.50;99.90
12957;DHT22;6543;48.836;10.092;2023-07-31T01:58:09;12.50;99.90
12957;DHT22;6543;48.836;10.092;2023-07-31T02:00:36;12.60;99.90
12957;DHT22;6543;48.836;10.092;2023-07-31T02:03:03;12.60;99.90
12957;DHT22;6543;48.836;10.092;2023-07-31T02:05:30;12.60;99.90
12957;DHT22;6543;48.836;10.092;2023-07-31T02:07:56;12.60;99.90
12957;DHT22;6543;48.836;10.092;2023-07-31T02:10:23;12.60;99.90
12957;DHT22;6543;48.836;10.092;2023-07-31T02:12:50;12.60;99.90
12957;DHT22;6543;48.836;10.092;2023-07-31T02:15:18;12.50;99.90
12957;DHT22;6543;48.836;10.092;2023-07-31T02:17:45;12.30;99.90
12957;DHT22;6543;48.836;10.092;2023-07-31T02:20:12;12.30;99.90
12957;DHT22;6543;48.836;10.092;2023-07-31T02:22:39;12.30;99.90
12957;DHT22;6543;48.836;10.092;2023-07-31T02:25:06;12.20;99.90
12957;DHT22;6543;48.836;10.092;2023-07-31T02:27:33;12.10;99.90
12957;DHT22;6543;48.836;10.092;2023-07-31T02:29:59;12.10;99.90
12957;DHT22;6543;48.836;10.092;2023-07-31T02:32:28;12.10;99.90
12957;DHT22;6543;48.836;10.092;2023-07-31T02:34:54;12.10;99.90
12957;DHT22;6543;48.836;10.092;2023-07-31T02:37:21;12.10;99.90
12957;DHT22;6543;48.836;10.092;2023-07-31T02:39:48;12.10;99.90
12957;DHT22;6543;48.836;10.092;2023-07-31T02:42:15;12.10;99.90
12957;DHT22;6543;48.836;10.092;2023-07-31T02:44:42;12.10;99.90
12957;DHT22;6543;48.836;10.092;2023-07-31T02:47:09;12.20;99.90
12957;DHT22;6543;48.836;10.092;2023-07-31T02:49:37;12.30;99.90
12957;DHT22;6543;48.836;10.092;2023-07-31T02:52:04;12.40;99.90
12957;DHT22;6543;48.836;10.092;2023-07-31T02:54:31;12.40;99.90
12957;DHT22;6543;48.836;10.092;2023-07-31T02:56:58;12.20;99.90
12957;DHT22;6543;48.836;10.092;2023-07-31T02:59:24;12.30;99.90
12957;DHT22;6543;48.836;10.092;2023-07-31T03:01:51;12.40;99.90
12957;DHT22;6543;48.836;10.092;2023-07-31T03:04:18;12.40;99.90
12957;DHT22;6543;48.836;10.092;2023-07-31T03:06:46;12.40;99.90
12957;DHT22;6543;48.836;10.092;2023-07-31T03:09:13;12.30;99.90
12957;DHT22;6543;48.836;10.092;2023-07-31T03:11:40;12.20;99.90
12957;DHT22;6543;48.836;10.092;2023-07-31T03:14:07;12.20;99.90
12957;DHT22;6543;48.836;10.092;2023-07-31T03:16:34;12.10;99.90
12957;DHT22;6543;48.836;10.092;2023-07-31T03:19:01;12.10;99.90
12957;DHT22;6543;48.836;10.092;2023-07-31T03:21:27;12.00;99.90
12957;DHT22;6543;48.836;10.092;2023-07-31T03:23:56;12.00;99.90
12957;DHT22;6543;48.836;10.092;2023-07-31T03:26:22;12.00;99.90
12957;DHT22;6543;48.836;10.092;2023-07-31T03:28:49;12.00;99.90
12957;DHT22;6543;48.836;10.092;2023-07-31T03:31:16;12.00;99.90
12957;DHT22;6543;48.836;10.092;2023-07-31T03:33:43;12.00;99.90
12957;DHT22;6543;48.836;10.092;2023-07-31T03:36:10;12.00;99.90
12957;DHT22;6543;48.836;10.092;2023-07-31T03:38:36;12.00;99.90
12957;DHT22;6543;48.836;10.092;2023-07-31T03:41:05;12.10;99.90
12957;DHT22;6543;48.836;10.092;2023-07-31T03:43:32;12.10;99.90
12957;DHT22;6543;48.836;10.092;2023-07-31T03:45:59;12.20;99.90
12957;DHT22;6543;48.836;10.092;2023-07-31T03:48:26;12.30;99.90
12957;DHT22;6543;48.836;10.092;2023-07-31T03:50:53;12.30;99.90
12957;DHT22;6543;48.836;10.092;2023-07-31T03:53:20;12.20;99.90
12957;DHT22;6543;48.836;10.092;2023-07-31T03:55:46;12.30;99.90
12957;DHT22;6543;48.836;10.092;2023-07-31T03:58:15;12.30;99.90
12957;DHT22;6543;48.836;10.092;2023-07-31T04:00:41;12.40;99.90
12957;DHT22;6543;48.836;10.092;2023-07-31T04:03:08;12.40;99.90
12957;DHT22;6543;48.836;10.092;2023-07-31T04:05:38;12.40;99.90
12957;DHT22;6543;48.836;10.092;2023-07-31T04:08:05;12.50;99.90
12957;DHT22;6543;48.836;10.092;2023-07-31T04:10:32;12.50;99.90
12957;DHT22;6543;48.836;10.092;2023-07-31T04:12:59;12.50;99.90
12957;DHT22;6543;48.836;10.092;2023-07-31T04:15:27;12.50;99.90
12957;DHT22;6543;48.836;10.092;2023-07-31T04:17:54;12.50;99.90
12957;DHT22;6543;48.836;10.092;2023-07-31T04:20:21;12.40;99.90
12957;DHT22;6543;48.836;10.092;2023-07-31T04:22:48;12.40;99.90
12957;DHT22;6543;48.836;10.092;2023-07-31T04:25:15;12.50;99.90
12957;DHT22;6543;48.836;10.092;2023-07-31T04:27:41;12.50;99.90
12957;DHT22;6543;48.836;10.092;2023-07-31T04:30:09;12.60;99.90
12957;DHT22;6543;48.836;10.092;2023-07-31T04:32:37;12.70;99.90
12957;DHT22;6543;48.836;10.092;2023-07-31T04:35:04;12.80;99.90
12957;DHT22;6543;48.836;10.092;2023-07-31T04:37:31;12.90;99.90
12957;DHT22;6543;48.836;10.092;2023-07-31T04:39:58;12.90;99.90
12957;DHT22;6543;48.836;10.092;2023-07-31T04:42:25;13.00;99.90
12957;DHT22;6543;48.836;10.092;2023-07-31T04:44:52;13.10;99.90
12957;DHT22;6543;48.836;10.092;2023-07-31T04:47:19;13.20;99.90
12957;DHT22;6543;48.836;10.092;2023-07-31T04:49:47;13.30;99.90
12957;DHT22;6543;48.836;10.092;2023-07-31T04:52:14;13.30;99.90
12957;DHT22;6543;48.836;10.092;2023-07-31T04:54:41;13.50;99.90
12957;DHT22;6543;48.836;10.092;2023-07-31T04:57:07;13.50;99.90
12957;DHT22;6543;48.836;10.092;2023-07-31T04:59:34;13.60;99.90
12957;DHT22;6543;48.836;10.092;2023-07-31T05:02:02;13.70;99.90
12957;DHT22;6543;48.836;10.092;2023-07-31T05:04:29;13.80;99.90
12957;DHT22;6543;48.836;10.092;2023-07-31T05:06:57;13.90;99.90
12957;DHT22;6543;48.836;10.092;2023-07-31T05:09:24;14.00;99.90
12957;DHT22;6543;48.836;10.092;2023-07-31T05:11:51;14.00;99.90
12957;DHT22;6543;48.836;10.092;2023-07-31T05:14:17;14.10;99.90
12957;DHT22;6543;48.836;10.092;2023-07-31T05:16:45;14.10;99.90
12957;DHT22;6543;48.836;10.092;2023-07-31T05:19:12;14.20;99.90
12957;DHT22;6543;48.836;10.092;2023-07-31T05:21:39;14.30;99.90
12957;DHT22;6543;48.836;10.092;2023-07-31T05:24:08;14.50;99.90
12957;DHT22;6543;48.836;10.092;2023-07-31T05:26:34;14.50;99.90
12957;DHT22;6543;48.836;10.092;2023-07-31T05:29:01;14.60;99.90
12957;DHT22;6543;48.836;10.092;2023-07-31T05:31:28;14.70;99.90
12957;DHT22;6543;48.836;10.092;2023-07-31T05:33:55;14.70;99.90
12957;DHT22;6543;48.836;10.092;2023-07-31T05:36:22;14.70;99.90
12957;DHT22;6543;48.836;10.092;2023-07-31T05:38:48;14.70;99.90
12957;DHT22;6543;48.836;10.092;2023-07-31T05:41:17;14.90;99.90
12957;DHT22;6543;48.836;10.092;2023-07-31T05:43:44;14.90;99.90
12957;DHT22;6543;48.836;10.092;2023-07-31T05:46:11;15.00;99.90
12957;DHT22;6543;48.836;10.092;2023-07-31T05:48:38;15.50;99.90
12957;DHT22;6543;48.836;10.092;2023-07-31T05:51:05;15.50;99.90
12957;DHT22;6543;48.836;10.092;2023-07-31T05:53:32;15.70;99.90
12957;DHT22;6543;48.836;10.092;2023-07-31T05:55:59;15.70;99.90
12957;DHT22;6543;48.836;10.092;2023-07-31T05:58:27;15.90;99.90
12957;DHT22;6543;48.836;10.092;2023-07-31T06:00:54;16.00;99.90
12957;DHT22;6543;48.836;10.092;2023-07-31T06:03:21;16.10;99.90
12957;DHT22;6543;48.836;10.092;2023-07-31T06:05:48;16.40;99.90
12957;DHT22;6543;48.836;10.092;2023-07-31T06:08:14;16.40;99.90
12957;DHT22;6543;48.836;10.092;2023-07-31T06:10:41;16.60;99.90
12957;DHT22;6543;48.836;10.092;2023-07-31T06:13:08;16.60;99.90
12957;DHT22;6543;48.836;10.092;2023-07-31T06:15:36;16.60;99.90
12957;DHT22;6543;48.836;10.092;2023-07-31T06:18:03;16.70;99.90
12957;DHT22;6543;48.836;10.092;2023-07-31T06:20:33;16.80;99.90
12957;DHT22;6543;48.836;10.092;2023-07-31T06:23:00;16.70;99.90
12957;DHT22;6543;48.836;10.092;2023-07-31T06:25:27;16.80;99.90
12957;DHT22;6543;48.836;10.092;2023-07-31T06:27:53;16.90;99.90
12957;DHT22;6543;48.836;10.092;2023-07-31T06:30:20;16.90;99.90
12957;DHT22;6543;48.836;10.092;2023-07-31T06:32:48;17.00;99.90
12957;DHT22;6543;48.836;10.092;2023-07-31T06:35:15;16.90;99.90
12957;DHT22;6543;48.836;10.092;2023-07-31T06:37:42;17.00;99.90
12957;DHT22;6543;48.836;10.092;2023-07-31T06:40:10;17.10;99.90
12957;DHT22;6543;48.836;10.092;2023-07-31T06:42:37;17.10;99.90
12957;DHT22;6543;48.836;10.092;2023-07-31T06:45:05;17.40;99.90
12957;DHT22;6543;48.836;10.092;2023-07-31T06:47:32;17.70;99.90
12957;DHT22;6543;48.836;10.092;2023-07-31T06:50:00;17.70;99.90
12957;DHT22;6543;48.836;10.092;2023-07-31T06:52:27;17.50;99.90
12957;DHT22;6543;48.836;10.092;2023-07-31T06:55:15;17.50;99.90
12957;DHT22;6543;48.836;10.092;2023-07-31T06:57:42;17.50;99.90
12957;DHT22;6543;48.836;10.092;2023-07-31T07:00:09;17.50;99.90
12957;DHT22;6543;48.836;10.092;2023-07-31T07:02:36;17.80;99.90
12957;DHT22;6543;48.836;10.092;2023-07-31T07:05:06;18.00;99.90
12957;DHT22;6543;48.836;10.092;2023-07-31T07:07:33;18.20;99.90
12957;DHT22;6543;48.836;10.092;2023-07-31T07:10:00;18.50;99.90
12957;DHT22;6543;48.836;10.092;2023-07-31T07:12:28;18.70;99.90
12957;DHT22;6543;48.836;10.092;2023-07-31T07:14:56;19.00;99.90
12957;DHT22;6543;48.836;10.092;2023-07-31T07:17:23;19.00;99.90
12957;DHT22;6543;48.836;10.092;2023-07-31T07:19:50;19.10;99.90
12957;DHT22;6543;48.836;10.092;2023-07-31T07:22:19;18.80;99.90
12957;DHT22;6543;48.836;10.092;2023-07-31T07:24:46;18.80;99.90
12957;DHT22;6543;48.836;10.092;2023-07-31T07:27:12;18.60;99.90
12957;DHT22;6543;48.836;10.092;2023-07-31T07:29:40;18.50;99.90
12957;DHT22;6543;48.836;10.092;2023-07-31T07:32:07;18.50;99.90
12957;DHT22;6543;48.836;10.092;2023-07-31T07:34:34;18.70;99.90
12957;DHT22;6543;48.836;10.092;2023-07-31T07:37:01;18.80;99.90
12957;DHT22;6543;48.836;10.092;2023-07-31T07:39:29;18.70;99.90
12957;DHT22;6543;48.836;10.092;2023-07-31T07:41:56;18.70;99.90
12957;DHT22;6543;48.836;10.092;2023-07-31T07:44:23;18.80;99.90
12957;DHT22;6543;48.836;10.092;2023-07-31T07:46:50;18.60;99.90
12957;DHT22;6543;48.836;10.092;2023-07-31T07:49:17;18.80;99.90
12957;DHT22;6543;48.836;10.092;2023-07-31T07:51:44;17.50;99.90
12957;DHT22;6543;48.836;10.092;2023-07-31T07:54:11;18.70;99.90
12957;DHT22;6543;48.836;10.092;2023-07-31T07:56:39;18.90;99.90
12957;DHT22;6543;48.836;10.092;2023-07-31T07:59:06;18.80;99.90
12957;DHT22;6543;48.836;10.092;2023-07-31T08:01:32;19.00;99.90
12957;DHT22;6543;48.836;10.092;2023-07-31T08:06:26;18.90;99.90
12957;DHT22;6543;48.836;10.092;2023-07-31T08:08:55;18.90;99.90
12957;DHT22;6543;48.836;10.092;2023-07-31T08:11:22;19.10;99.90
12957;DHT22;6543;48.836;10.092;2023-07-31T08:13:50;19.00;99.90
12957;DHT22;6543;48.836;10.092;2023-07-31T08:16:17;19.40;99.90
12957;DHT22;6543;48.836;10.092;2023-07-31T08:18:44;19.40;99.90
12957;DHT22;6543;48.836;10.092;2023-07-31T08:21:11;19.40;99.90
12957;DHT22;6543;48.836;10.092;2023-07-31T08:23:37;19.20;99.90
12957;DHT22;6543;48.836;10.092;2023-07-31T08:26:04;19.20;99.90
12957;DHT22;6543;48.836;10.092;2023-07-31T08:28:31;19.50;99.90
12957;DHT22;6543;48.836;10.092;2023-07-31T08:31:00;19.40;99.90
12957;DHT22;6543;48.836;10.092;2023-07-31T08:33:27;19.60;99.90
12957;DHT22;6543;48.836;10.092;2023-07-31T08:35:53;20.10;99.90
12957;DHT22;6543;48.836;10.092;2023-07-31T08:38:20;20.10;99.90
12957;DHT22;6543;48.836;10.092;2023-07-31T08:40:51;20.10;99.90
12957;DHT22;6543;48.836;10.092;2023-07-31T08:43:18;20.30;99.90
12957;DHT22;6543;48.836;10.092;2023-07-31T08:45:45;20.80;99.90
12957;DHT22;6543;48.836;10.092;2023-07-31T08:48:16;20.50;99.90
12957;DHT22;6543;48.836;10.092;2023-07-31T08:50:44;20.50;99.90
12957;DHT22;6543;48.836;10.092;2023-07-31T08:53:11;20.60;99.90
12957;DHT22;6543;48.836;10.092;2023-07-31T08:55:38;20.50;99.90
12957;DHT22;6543;48.836;10.092;2023-07-31T08:58:05;20.40;99.90
12957;DHT22;6543;48.836;10.092;2023-07-31T09:00:32;20.40;99.90
12957;DHT22;6543;48.836;10.092;2023-07-31T09:03:01;20.70;99.90
12957;DHT22;6543;48.836;10.092;2023-07-31T09:05:31;20.90;99.90
12957;DHT22;6543;48.836;10.092;2023-07-31T09:08:00;20.60;99.90
12957;DHT22;6543;48.836;10.092;2023-07-31T09:10:28;20.50;99.90
12957;DHT22;6543;48.836;10.092;2023-07-31T09:12:56;20.60;99.90
12957;DHT22;6543;48.836;10.092;2023-07-31T09:15:23;21.00;99.90
12957;DHT22;6543;48.836;10.092;2023-07-31T09:17:58;21.00;99.90
12957;DHT22;6543;48.836;10.092;2023-07-31T09:20:26;21.10;99.90
12957;DHT22;6543;48.836;10.092;2023-07-31T09:22:55;21.10;99.90
12957;DHT22;6543;48.836;10.092;2023-07-31T09:25:23;21.40;99.90
12957;DHT22;6543;48.836;10.092;2023-07-31T09:27:52;21.40;99.90
12957;DHT22;6543;48.836;10.092;2023-07-31T09:30:20;21.50;99.90
12957;DHT22;6543;48.836;10.092;2023-07-31T09:32:48;21.80;99.90
12957;DHT22;6543;48.836;10.092;2023-07-31T09:35:20;21.90;99.90
12957;DHT22;6543;48.836;10.092;2023-07-31T09:37:51;21.90;99.90
12957;DHT22;6543;48.836;10.092;2023-07-31T09:40:31;22.20;99.90
12957;DHT22;6543;48.836;10.092;2023-07-31T09:42:59;22.80;99.90
12957;DHT22;6543;48.836;10.092;2023-07-31T09:47:54;22.40;99.90
12957;DHT22;6543;48.836;10.092;2023-07-31T09:50:21;22.40;99.90
12957;DHT22;6543;48.836;10.092;2023-07-31T09:52:49;22.20;99.90
12957;DHT22;6543;48.836;10.092;2023-07-31T09:55:16;21.90;99.90
12957;DHT22;6543;48.836;10.092;2023-07-31T09:57:45;21.70;99.90
12957;DHT22;6543;48.836;10.092;2023-07-31T10:00:14;21.20;99.90
12957;DHT22;6543;48.836;10.092;2023-07-31T10:02:41;22.00;99.90
12957;DHT22;6543;48.836;10.092;2023-07-31T10:05:12;22.70;99.90
12957;DHT22;6543;48.836;10.092;2023-07-31T10:07:42;22.60;99.90
12957;DHT22;6543;48.836;10.092;2023-07-31T10:10:11;22.30;99.90
12957;DHT22;6543;48.836;10.092;2023-07-31T10:12:41;21.90;99.90
12957;DHT22;6543;48.836;10.092;2023-07-31T10:15:10;22.30;99.90
12957;DHT22;6543;48.836;10.092;2023-07-31T10:17:38;22.20;99.90
12957;DHT22;6543;48.836;10.092;2023-07-31T10:20:07;22.00;99.90
12957;DHT22;6543;48.836;10.092;2023-07-31T10:22:34;22.00;99.90
12957;DHT22;6543;48.836;10.092;2023-07-31T10:25:01;21.80;99.90
12957;DHT22;6543;48.836;10.092;2023-07-31T10:27:28;22.10;99.90
12957;DHT22;6543;48.836;10.092;2023-07-31T10:29:57;22.40;99.90
12957;DHT22;6543;48.836;10.092;2023-07-31T10:32:28;22.70;99.90
12957;DHT22;6543;48.836;10.092;2023-07-31T10:34:56;22.00;99.90
12957;DHT22;6543;48.836;10.092;2023-07-31T10:37:25;22.10;99.90
12957;DHT22;6543;48.836;10.092;2023-07-31T10:39:59;21.80;99.90
12957;DHT22;6543;48.836;10.092;2023-07-31T10:42:31;22.00;99.90
12957;DHT22;6543;48.836;10.092;2023-07-31T10:47:28;22.00;99.90
12957;DHT22;6543;48.836;10.092;2023-07-31T10:50:17;22.00;99.90
12957;DHT22;6543;48.836;10.092;2023-07-31T10:52:46;22.30;99.90
12957;DHT22;6543;48.836;10.092;2023-07-31T10:55:26;22.40;99.90
12957;DHT22;6543;48.836;10.092;2023-07-31T10:57:54;22.90;99.90
12957;DHT22;6543;48.836;10.092;2023-07-31T11:00:24;22.60;99.90
12957;DHT22;6543;48.836;10.092;2023-07-31T11:03:00;22.50;99.90
12957;DHT22;6543;48.836;10.092;2023-07-31T11:05:48;22.80;99.90
12957;DHT22;6543;48.836;10.092;2023-07-31T11:08:17;22.70;99.90
12957;DHT22;6543;48.836;10.092;2023-07-31T11:10:45;22.70;99.90
12957;DHT22;6543;48.836;10.092;2023-07-31T11:13:13;23.00;99.90
12957;DHT22;6543;48.836;10.092;2023-07-31T11:15:40;22.60;99.90
12957;DHT22;6543;48.836;10.092;2023-07-31T11:18:08;23.10;99.90
12957;DHT22;6543;48.836;10.092;2023-07-31T11:20:37;23.50;99.90
12957;DHT22;6543;48.836;10.092;2023-07-31T11:23:08;23.60;99.90
12957;DHT22;6543;48.836;10.092;2023-07-31T11:25:36;22.80;99.90
12957;DHT22;6543;48.836;10.092;2023-07-31T11:28:04;22.30;99.90
12957;DHT22;6543;48.836;10.092;2023-07-31T11:30:32;22.40;99.90
12957;DHT22;6543;48.836;10.092;2023-07-31T11:33:01;22.70;99.90
12957;DHT22;6543;48.836;10.092;2023-07-31T11:35:30;23.00;99.90
12957;DHT22;6543;48.836;10.092;2023-07-31T11:37:57;22.50;99.90
12957;DHT22;6543;48.836;10.092;2023-07-31T11:40:24;22.30;99.90
12957;DHT22;6543;48.836;10.092;2023-07-31T11:42:55;22.40;99.90
12957;DHT22;6543;48.836;10.092;2023-07-31T11:45:25;23.10;99.90
12957;DHT22;6543;48.836;10.092;2023-07-31T11:47:52;22.50;99.90
12957;DHT22;6543;48.836;10.092;2023-07-31T11:50:20;23.00;99.90
12957;DHT22;6543;48.836;10.092;2023-07-31T11:52:51;22.70;99.90
12957;DHT22;6543;48.836;10.092;2023-07-31T11:55:19;22.70;99.90
12957;DHT22;6543;48.836;10.092;2023-07-31T11:57:47;22.50;99.90
12957;DHT22;6543;48.836;10.092;2023-07-31T12:00:15;22.90;99.90
12957;DHT22;6543;48.836;10.092;2023-07-31T12:02:42;23.00;99.90
12957;DHT22;6543;48.836;10.092;2023-07-31T12:05:11;23.20;99.90
12957;DHT22;6543;48.836;10.092;2023-07-31T12:07:46;23.40;99.90
12957;DHT22;6543;48.836;10.092;2023-07-31T12:10:24;23.50;99.90
12957;DHT22;6543;48.836;10.092;2023-07-31T12:13:00;24.10;99.90
12957;DHT22;6543;48.836;10.092;2023-07-31T12:15:37;23.60;99.90
12957;DHT22;6543;48.836;10.092;2023-07-31T12:18:05;23.90;99.90
12957;DHT22;6543;48.836;10.092;2023-07-31T12:20:32;23.20;99.90
12957;DHT22;6543;48.836;10.092;2023-07-31T12:23:00;24.00;99.90
12957;DHT22;6543;48.836;10.092;2023-07-31T12:25:32;24.10;99.90
12957;DHT22;6543;48.836;10.092;2023-07-31T12:28:04;24.20;99.90
12957;DHT22;6543;48.836;10.092;2023-07-31T12:30:33;25.00;99.90
12957;DHT22;6543;48.836;10.092;2023-07-31T12:33:03;25.20;99.90
12957;DHT22;6543;48.836;10.092;2023-07-31T12:35:35;25.20;99.90
12957;DHT22;6543;48.836;10.092;2023-07-31T12:38:03;24.30;99.90
12957;DHT22;6543;48.836;10.092;2023-07-31T12:40:30;24.20;99.90
12957;DHT22;6543;48.836;10.092;2023-07-31T12:43:00;23.80;99.90
12957;DHT22;6543;48.836;10.092;2023-07-31T12:45:27;23.90;99.90
12957;DHT22;6543;48.836;10.092;2023-07-31T12:47:54;23.90;99.90
12957;DHT22;6543;48.836;10.092;2023-07-31T12:50:21;23.90;99.90
12957;DHT22;6543;48.836;10.092;2023-07-31T12:52:49;24.20;99.90
12957;DHT22;6543;48.836;10.092;2023-07-31T12:55:15;24.20;99.90
12957;DHT22;6543;48.836;10.092;2023-07-31T12:57:43;24.10;99.90
12957;DHT22;6543;48.836;10.092;2023-07-31T13:00:13;24.20;99.90
12957;DHT22;6543;48.836;10.092;2023-07-31T13:02:40;24.00;99.90
12957;DHT22;6543;48.836;10.092;2023-07-31T13:05:07;23.90;99.90
12957;DHT22;6543;48.836;10.092;2023-07-31T13:07:34;23.90;99.90
12957;DHT22;6543;48.836;10.092;2023-07-31T13:10:01;23.20;99.90
12957;DHT22;6543;48.836;10.092;2023-07-31T13:12:28;23.60;99.90
12957;DHT22;6543;48.836;10.092;2023-07-31T13:14:55;23.80;99.90
12957;DHT22;6543;48.836;10.092;2023-07-31T13:17:23;24.00;99.90
12957;DHT22;6543;48.836;10.092;2023-07-31T13:19:50;23.70;99.90
12957;DHT22;6543;48.836;10.092;2023-07-31T13:22:17;23.60;99.90
12957;DHT22;6543;48.836;10.092;2023-07-31T13:24:44;23.80;99.90
12957;DHT22;6543;48.836;10.092;2023-07-31T13:27:11;23.90;99.90
12957;DHT22;6543;48.836;10.092;2023-07-31T13:29:37;23.50;99.90
12957;DHT22;6543;48.836;10.092;2023-07-31T13:32:05;23.30;99.90
12957;DHT22;6543;48.836;10.092;2023-07-31T13:34:33;23.70;99.90
12957;DHT22;6543;48.836;10.092;2023-07-31T13:37:00;24.20;99.90
12957;DHT22;6543;48.836;10.092;2023-07-31T13:39:27;24.10;99.90
12957;DHT22;6543;48.836;10.092;2023-07-31T13:41:54;23.90;99.90
12957;DHT22;6543;48.836;10.092;2023-07-31T13:44:21;24.10;99.90
12957;DHT22;6543;48.836;10.092;2023-07-31T13:46:47;23.80;99.90
12957;DHT22;6543;48.836;10.092;2023-07-31T13:49:14;24.30;99.90
12957;DHT22;6543;48.836;10.092;2023-07-31T13:51:43;25.30;99.90
12957;DHT22;6543;48.836;10.092;2023-07-31T13:54:09;25.50;99.90
12957;DHT22;6543;48.836;10.092;2023-07-31T13:56:37;24.70;99.90
12957;DHT22;6543;48.836;10.092;2023-07-31T13:59:04;23.90;99.90
12957;DHT22;6543;48.836;10.092;2023-07-31T14:01:31;23.60;99.90
12957;DHT22;6543;48.836;10.092;2023-07-31T14:03:58;23.50;99.90
12957;DHT22;6543;48.836;10.092;2023-07-31T14:06:25;23.90;99.90
12957;DHT22;6543;48.836;10.092;2023-07-31T14:08:53;23.30;99.90
12957;DHT22;6543;48.836;10.092;2023-07-31T14:11:21;23.70;99.90
12957;DHT22;6543;48.836;10.092;2023-07-31T14:13:49;23.70;99.90
12957;DHT22;6543;48.836;10.092;2023-07-31T14:16:16;23.70;99.90
12957;DHT22;6543;48.836;10.092;2023-07-31T14:18:43;23.40;99.90
12957;DHT22;6543;48.836;10.092;2023-07-31T14:21:11;23.00;99.90
12957;DHT22;6543;48.836;10.092;2023-07-31T14:23:37;22.90;99.90
12957;DHT22;6543;48.836;10.092;2023-07-31T14:26:06;23.10;99.90
12957;DHT22;6543;48.836;10.092;2023-07-31T14:28:33;23.10;99.90
12957;DHT22;6543;48.836;10.092;2023-07-31T14:30:59;23.10;99.90
12957;DHT22;6543;48.836;10.092;2023-07-31T14:33:26;23.00;99.90
12957;DHT22;6543;48.836;10.092;2023-07-31T14:35:53;22.80;99.90
12957;DHT22;6543;48.836;10.092;2023-07-31T14:38:20;22.60;99.90
12957;DHT22;6543;48.836;10.092;2023-07-31T14:40:47;22.80;99.90
12957;DHT22;6543;48.836;10.092;2023-07-31T14:43:16;22.70;99.90
12957;DHT22;6543;48.836;10.092;2023-07-31T14:45:43;22.50;99.90
12957;DHT22;6543;48.836;10.092;2023-07-31T14:48:11;22.50;99.90
12957;DHT22;6543;48.836;10.092;2023-07-31T14:50:38;22.40;99.90
12957;DHT22;6543;48.836;10.092;2023-07-31T14:53:05;22.30;99.90
12957;DHT22;6543;48.836;10.092;2023-07-31T14:55:32;22.60;99.90
12957;DHT22;6543;48.836;10.092;2023-07-31T14:57:59;22.80;99.90
12957;DHT22;6543;48.836;10.092;2023-07-31T15:00:27;23.00;99.90
12957;DHT22;6543;48.836;10.092;2023-07-31T15:02:54;23.10;99.90
12957;DHT22;6543;48.836;10.092;2023-07-31T15:05:21;23.70;99.90
12957;DHT22;6543;48.836;10.092;2023-07-31T15:07:48;24.10;99.90
12957;DHT22;6543;48.836;10.092;2023-07-31T15:10:15;23.80;99.90
12957;DHT22;6543;48.836;10.092;2023-07-31T15:12:42;23.70;99.90
12957;DHT22;6543;48.836;10.092;2023-07-31T15:15:09;23.70;99.90
12957;DHT22;6543;48.836;10.092;2023-07-31T15:17:37;24.00;99.90
12957;DHT22;6543;48.836;10.092;2023-07-31T15:20:05;24.10;99.90
12957;DHT22;6543;48.836;10.092;2023-07-31T15:22:32;23.70;99.90
12957;DHT22;6543;48.836;10.092;2023-07-31T15:24:59;24.10;99.90
12957;DHT22;6543;48.836;10.092;2023-07-31T15:27:26;24.20;99.90
12957;DHT22;6543;48.836;10.092;2023-07-31T15:29:53;24.10;99.90
12957;DHT22;6543;48.836;10.092;2023-07-31T15:32:20;23.40;99.90
12957;DHT22;6543;48.836;10.092;2023-07-31T15:34:49;23.20;99.90
12957;DHT22;6543;48.836;10.092;2023-07-31T15:37:16;23.40;99.90
12957;DHT22;6543;48.836;10.092;2023-07-31T15:39:43;23.30;99.90
12957;DHT22;6543;48.836;10.092;2023-07-31T15:42:10;23.60;99.90